Bachigualato, Mexico

2:48 PM MDT on April 28, 2017 (GMT -0600)
Campo La 20 | | Change Station

Elev 52 ft 24.67 °N, 107.45 °W | Updated 2 seconds ago

Clear
Clear
83.4 °F
Feels Like 86 °F
N
11.0
Wind Variable Wind from South
Gusts 11.0 mph

Today
High -- | Low -- °F
--% Chance of Precip.
Yesterday
High -- | Low -- °F
Precip. -- in
Pressure 29.80 in
Visibility 10.0 miles
Clouds Clear
Heat Index 86 °F
Dew Point 68 °F
Humidity 59%
Rainfall 0.00 in
Snow Depth Not available.
6:36 AM 7:38 PM
Waxing Crescent, 8% visible
METAR MMCL 281946Z 20015KT 10SM SKC 29/18 A2980 RMK ISOL CU
Pressure 29.80 in
Visibility 10.0 miles
Clouds Clear
Heat Index 86 °F
Dew Point 68 °F
Humidity 59%
Rainfall 0.00 in
Snow Depth Not available.
6:36 AM 7:38 PM
Waxing Crescent, 8% visible
METAR MMCL 281946Z 20015KT 10SM SKC 29/18 A2980 RMK ISOL CU

Get Severe Weather Alerts

Thanks for signing up!

Be on the lookout for a verification email in your inbox.

You'll start receiving the daily forecast at 8 AM.

×

10-Day Weather Forecast

No radar image for this location.
×

Almanac

Astronomy

Apr. 28, 2017 Rise Set
Actual Time
Civil Twilight
Nautical Twilight
Astronomical Twilight
Moon
Length of Visible Light
Length of Day
Tomorrow will be .
, % of the Moon is Illuminated

Today's Extremes

Country Highs Country Lows

Community

WunderPhotos

WunderBlog® & News

Nearby

Air Quality

  Air Quality AQ Index Pollutant
Not available.

Snow Depth

Station Depth Elevation

Earthquake Activity

City Distance Mag. Time & Date
Minimum magnitude displayed is 2.5.

Coastal Water Temperatures

Place Temperature

Stations

Nearby Weather Stations

Station Location Temp. Windchill Dew Point Humidity Wind Precip. Elev Updated Type